sim
Sign-in with your pilot id or email,
or register
Callsign
Passwort

Schedule Details

Flight Number: DLH1895 (2)
Departure: Turin Caselle Airport (LIMF) at 07:45
Arrival: Munich Airport (EDDM) at 08:55
Route: Lufthansa Passenger Schedule. Enter filed route here before submitting Pirep.

Weather Information
Getting current METAR information for LIMF 190450Z 01003KT 340V040 9999 SCT045 20/16 Q1020
Getting current METAR information for EDDM 190450Z 32001KT CAVOK 04/03 Q1020 NOSIG

Schedule Frequency

Route Map